Time;durP1;ratioP1;P1;durP2;ratioP2;P2;SDS_P1;SDS_P2;PMS_P1;PMS_P2;Temp;Humidity;BMP_temperature;BMP_pressure;BME280_temperature;BME280_humidity;BME280_pressure;Samples;Min_cycle;Max_cycle;Signal;HPM_P1;HPM_P2
2023/03/26 00:01:32;;;;;;;3.27;1.03;;;24.30;64.10;;;;;;5070254;28;20222;-68
2023/03/26 00:04:00;;;;;;;4.67;1.13;;;24.40;63.20;;;;;;5066845;28;20184;-70
2023/03/26 00:06:29;;;;;;;2.90;1.07;;;24.50;63.50;;;;;;5071686;28;20194;-69
2023/03/26 00:08:57;;;;;;;5.10;1.23;;;24.90;63.60;;;;;;5070755;28;20252;-70
2023/03/26 00:11:28;;;;;;;3.30;0.90;;;24.90;61.50;;;;;;5065005;28;20183;-66
2023/03/26 00:13:56;;;;;;;8.33;1.10;;;24.90;61.30;;;;;;5058784;28;20270;-70
2023/03/26 00:16:26;;;;;;;4.67;1.00;;;24.90;61.20;;;;;;5060281;28;20274;-67
2023/03/26 00:18:54;;;;;;;7.30;3.73;;;24.90;60.80;;;;;;5068299;28;20175;-67
2023/03/26 00:21:27;;;;;;;5.60;1.37;;;25.00;61.30;;;;;;5072560;28;20202;-73
2023/03/26 00:23:58;;;;;;;4.77;1.83;;;24.90;60.80;;;;;;5071671;28;20207;-70
2023/03/26 00:26:28;;;;;;;8.97;1.63;;;25.00;61.20;;;;;;5072465;28;20191;-69
2023/03/26 00:28:56;;;;;;;2.33;1.10;;;25.30;60.70;;;;;;5075325;28;20171;-71
2023/03/26 00:31:24;;;;;;;2.63;1.07;;;25.30;60.80;;;;;;5078075;28;20236;-68
2023/03/26 00:33:55;;;;;;;2.23;0.80;;;25.30;60.30;;;;;;5071080;28;20727;-71
2023/03/26 00:36:24;;;;;;;4.70;0.90;;;25.20;60.60;;;;;;5070869;28;20313;-70
2023/03/26 00:38:52;;;;;;;4.47;1.00;;;25.10;61.30;;;;;;5062970;28;20201;-68
2023/03/26 00:41:23;;;;;;;4.50;1.67;;;25.30;61.50;;;;;;5070346;28;20274;-70
2023/03/26 00:43:55;;;;;;;3.70;1.00;;;25.40;59.90;;;;;;5071493;28;20183;-70
2023/03/26 00:46:24;;;;;;;3.23;1.10;;;25.80;59.30;;;;;;5071479;28;20183;-69
2023/03/26 00:48:51;;;;;;;4.57;1.50;;;26.00;58.30;;;;;;5071652;28;20559;-69
2023/03/26 00:51:20;;;;;;;6.00;1.60;;;26.00;58.00;;;;;;5066031;28;20190;-71
2023/03/26 00:53:50;;;;;;;4.50;1.30;;;26.20;57.70;;;;;;5069547;28;20266;-68
2023/03/26 00:56:18;;;;;;;6.57;1.40;;;26.30;57.20;;;;;;5072760;28;20187;-69
2023/03/26 00:58:48;;;;;;;6.90;1.27;;;26.40;56.80;;;;;;5069032;28;20306;-70
2023/03/26 01:01:25;;;;;;;6.10;0.93;;;26.70;56.70;;;;;;5074020;28;20657;-68
2023/03/26 01:03:58;;;;;;;6.90;1.13;;;26.90;55.20;;;;;;5071105;28;20265;-74
2023/03/26 01:06:34;;;;;;;4.50;1.33;;;27.30;54.10;;;;;;5079369;28;20351;-70
2023/03/26 01:09:15;;;;;;;4.23;1.00;;;27.60;53.40;;;;;;5072664;28;20178;-69
2023/03/26 01:11:42;;;;;;;5.47;1.20;;;27.10;53.80;;;;;;5062036;28;20190;-67
2023/03/26 01:14:19;;;;;;;10.07;1.27;;;26.90;54.00;;;;;;5072382;28;20202;-69
2023/03/26 01:17:05;;;;;;;5.47;1.07;;;26.60;54.90;;;;;;5071897;28;20183;-72
2023/03/26 01:20:00;;;;;;;8.03;1.20;;;26.70;55.50;;;;;;5067820;28;20219;-68
2023/03/26 01:22:27;;;;;;;5.23;1.00;;;26.80;55.10;;;;;;5071104;28;20184;-73
2023/03/26 01:24:57;;;;;;;1.87;0.67;;;26.90;54.90;;;;;;5074239;28;20698;-74
2023/03/26 01:28:04;;;;;;;7.93;3.63;;;26.60;55.40;;;;;;5077968;28;20564;-75
2023/03/26 01:30:35;;;;;;;4.93;2.00;;;26.80;56.10;;;;;;5075412;28;20194;-73
2023/03/26 01:33:12;;;;;;;8.07;1.23;;;26.50;56.40;;;;;;5076359;28;20229;-72
2023/03/26 01:35:55;;;;;;;6.10;1.60;;;26.40;57.40;;;;;;5076529;28;20257;-76
2023/03/26 01:38:49;;;;;;;5.67;1.17;;;26.60;57.40;;;;;;5075648;28;20178;-73
2023/03/26 01:41:50;;;;;;;4.67;1.13;;;27.00;56.70;;;;;;5075523;28;20277;-71
2023/03/26 01:44:35;;;;;;;5.47;1.00;;;27.00;56.00;;;;;;5067744;28;20599;-73
2023/03/26 01:47:04;;;;;;;4.67;1.13;;;26.70;55.50;;;;;;5061269;28;20195;-75
2023/03/26 01:49:32;;;;;;;6.43;3.40;;;26.50;56.10;;;;;;5074985;28;20666;-72
2023/03/26 01:52:02;;;;;;;4.30;1.33;;;26.60;56.70;;;;;;5072773;28;20184;-74
2023/03/26 01:54:32;;;;;;;3.33;1.20;;;26.80;55.90;;;;;;5079390;28;20186;-74
2023/03/26 01:57:06;;;;;;;4.90;1.00;;;26.70;56.40;;;;;;5075158;28;20175;-68
2023/03/26 01:59:51;;;;;;;6.83;2.33;;;26.60;55.70;;;;;;5074370;28;20186;-71
2023/03/26 02:02:55;;;;;;;4.37;1.63;;;26.60;57.40;;;;;;5076120;28;20262;-74
2023/03/26 02:05:33;;;;;;;4.70;1.10;;;26.60;55.40;;;;;;5074727;28;20174;-74
2023/03/26 02:08:10;;;;;;;5.33;1.10;;;26.60;56.50;;;;;;5067525;28;20238;-69
2023/03/26 02:10:47;;;;;;;3.90;1.07;;;26.50;55.30;;;;;;5072344;28;20198;-71
2023/03/26 02:13:15;;;;;;;2.97;1.23;;;26.70;55.80;;;;;;5073074;28;20287;-72
2023/03/26 02:15:55;;;;;;;3.97;1.10;;;26.50;54.60;;;;;;5074304;28;20704;-75
2023/03/26 02:18:23;;;;;;;4.63;1.37;;;26.70;55.00;;;;;;5073041;28;20624;-72
2023/03/26 02:20:53;;;;;;;6.77;1.63;;;26.60;54.70;;;;;;5074472;28;20175;-71
2023/03/26 02:23:21;;;;;;;4.93;1.03;;;26.70;55.80;;;;;;5072137;28;20184;-72
2023/03/26 02:25:48;;;;;;;4.67;1.30;;;26.60;54.60;;;;;;5072456;28;20183;-70
2023/03/26 02:28:15;;;;;;;4.60;1.00;;;26.30;56.30;;;;;;5073682;28;20242;-73
2023/03/26 02:30:44;;;;;;;2.97;1.17;;;26.30;57.20;;;;;;5073691;28;20257;-70
2023/03/26 02:33:14;;;;;;;3.43;1.13;;;26.20;58.20;;;;;;5074267;28;20190;-70
2023/03/26 02:35:44;;;;;;;3.37;0.87;;;26.30;56.90;;;;;;5071538;28;20516;-71
2023/03/26 02:38:13;;;;;;;5.07;1.23;;;26.30;57.90;;;;;;5068989;28;20538;-69
2023/03/26 02:40:41;;;;;;;4.37;1.37;;;26.30;58.00;;;;;;5070963;28;20258;-72
2023/03/26 02:43:08;;;;;;;6.07;1.27;;;26.20;58.50;;;;;;5082949;28;20183;-71
2023/03/26 02:45:36;;;;;;;5.63;1.43;;;26.10;59.60;;;;;;5073468;28;20202;-74
2023/03/26 02:48:03;;;;;;;7.83;1.73;;;26.10;58.60;;;;;;5072906;28;20627;-74
2023/03/26 02:50:31;;;;;;;3.73;1.00;;;26.30;57.90;;;;;;5074216;28;20828;-69
2023/03/26 02:52:59;;;;;;;8.90;1.60;;;26.50;58.20;;;;;;5071841;28;20211;-74
2023/03/26 02:55:26;;;;;;;6.70;1.37;;;26.50;58.10;;;;;;5069454;28;20179;-70
2023/03/26 02:57:54;;;;;;;3.50;1.07;;;26.50;58.70;;;;;;5074523;28;20179;-72
2023/03/26 03:00:21;;;;;;;3.20;1.20;;;26.30;59.20;;;;;;5072963;28;20171;-71
2023/03/26 03:02:49;;;;;;;3.37;1.20;;;26.30;59.90;;;;;;5074726;28;20687;-68
2023/03/26 03:05:17;;;;;;;4.17;1.03;;;26.30;60.20;;;;;;5069847;28;20191;-70
2023/03/26 03:07:45;;;;;;;2.93;1.30;;;26.20;60.40;;;;;;5073527;28;20219;-70
2023/03/26 03:10:14;;;;;;;7.73;1.40;;;26.30;60.30;;;;;;5074586;28;20187;-74
2023/03/26 03:12:42;;;;;;;7.60;1.20;;;26.40;60.80;;;;;;5072995;28;20187;-71
2023/03/26 03:15:11;;;;;;;7.03;1.70;;;26.40;60.30;;;;;;5069875;28;20270;-72
2023/03/26 03:17:39;;;;;;;9.00;1.60;;;26.50;60.90;;;;;;5066729;28;20199;-71
2023/03/26 03:20:10;;;;;;;7.77;1.67;;;26.60;60.30;;;;;;5060077;28;20182;-68
2023/03/26 03:22:38;;;;;;;6.43;1.30;;;26.30;60.70;;;;;;5071063;28;20187;-68
2023/03/26 03:25:07;;;;;;;5.43;1.33;;;26.00;62.00;;;;;;5069598;28;20199;-69
2023/03/26 03:27:38;;;;;;;4.47;1.50;;;26.00;61.60;;;;;;5072477;28;20580;-68
2023/03/26 03:30:06;;;;;;;5.70;1.43;;;26.00;62.50;;;;;;5072486;28;20232;-70
2023/03/26 03:32:34;;;;;;;11.90;2.07;;;26.20;61.90;;;;;;5073240;28;20605;-71
2023/03/26 03:35:01;;;;;;;4.00;1.30;;;26.10;61.80;;;;;;5071077;28;20181;-71
2023/03/26 03:37:29;;;;;;;6.10;1.60;;;26.10;61.80;;;;;;5073026;28;20175;-67
2023/03/26 03:39:56;;;;;;;4.80;1.43;;;25.80;63.00;;;;;;5070831;28;20183;-67
2023/03/26 03:42:24;;;;;;;6.07;1.50;;;25.70;63.00;;;;;;5070158;28;20182;-68
2023/03/26 03:44:51;;;;;;;5.83;1.20;;;25.80;63.00;;;;;;5075817;28;20183;-67
2023/03/26 03:47:19;;;;;;;9.77;1.50;;;25.70;63.50;;;;;;5071150;28;20786;-67
2023/03/26 03:49:46;;;;;;;4.63;1.20;;;25.60;64.30;;;;;;5072345;28;20221;-66
2023/03/26 03:52:13;;;;;;;5.13;1.50;;;25.30;65.30;;;;;;5071241;28;20190;-66
2023/03/26 03:54:41;;;;;;;6.77;1.40;;;25.30;65.10;;;;;;5072624;28;20175;-72
2023/03/26 03:57:08;;;;;;;8.17;1.60;;;25.50;65.20;;;;;;5066482;28;20842;-68
2023/03/26 03:59:35;;;;;;;10.77;2.03;;;25.40;65.20;;;;;;5052767;28;20731;-70
2023/03/26 04:02:04;;;;;;;5.07;1.23;;;25.60;64.10;;;;;;5072868;28;20571;-68
2023/03/26 04:04:31;;;;;;;4.17;1.50;;;25.30;64.90;;;;;;5074170;28;20629;-68
2023/03/26 04:06:59;;;;;;;7.37;1.50;;;25.30;65.40;;;;;;5071977;28;20230;-68
2023/03/26 04:09:26;;;;;;;5.00;1.30;;;25.30;65.70;;;;;;5072125;28;20269;-69
2023/03/26 04:11:53;;;;;;;6.93;1.90;;;25.30;65.70;;;;;;5074229;28;20178;-68
2023/03/26 04:14:21;;;;;;;8.03;1.93;;;25.30;66.20;;;;;;5074050;28;20179;-67
2023/03/26 04:16:48;;;;;;;4.20;1.27;;;25.40;65.90;;;;;;5074258;28;20214;-69
2023/03/26 04:19:16;;;;;;;7.43;1.60;;;25.40;65.80;;;;;;5073933;28;20171;-69
2023/03/26 04:21:43;;;;;;;9.87;1.63;;;25.20;66.30;;;;;;5074196;28;20239;-70
2023/03/26 04:24:11;;;;;;;5.33;1.30;;;25.10;67.00;;;;;;5055017;28;20530;-70
2023/03/26 04:26:38;;;;;;;7.00;1.80;;;24.80;68.40;;;;;;5064816;28;20631;-71
2023/03/26 04:29:11;;;;;;;5.67;1.37;;;24.80;68.80;;;;;;5075670;28;20206;-72
2023/03/26 04:31:39;;;;;;;9.93;1.50;;;24.80;69.20;;;;;;5077470;28;20179;-70
2023/03/26 04:34:13;;;;;;;4.73;1.30;;;24.80;69.40;;;;;;5077283;28;20163;-72
2023/03/26 04:36:41;;;;;;;8.33;1.50;;;24.80;69.90;;;;;;5076894;28;20167;-75
2023/03/26 04:39:13;;;;;;;7.23;1.60;;;24.80;70.20;;;;;;5076914;28;20186;-73
2023/03/26 04:41:40;;;;;;;9.07;1.53;;;24.80;69.70;;;;;;5076852;28;20529;-72
2023/03/26 04:44:07;;;;;;;7.93;1.30;;;24.70;69.40;;;;;;5077217;28;20211;-67
2023/03/26 04:46:35;;;;;;;8.30;2.13;;;24.70;69.60;;;;;;5076164;28;20194;-70
2023/03/26 04:49:02;;;;;;;5.90;1.07;;;24.60;70.20;;;;;;5077134;28;20183;-68
2023/03/26 04:51:37;;;;;;;11.23;1.60;;;24.70;69.50;;;;;;5076468;28;20586;-71
2023/03/26 04:54:06;;;;;;;7.40;1.77;;;24.70;69.60;;;;;;5077934;28;20182;-71
2023/03/26 04:56:49;;;;;;;5.37;1.50;;;24.70;69.30;;;;;;5085044;28;20207;-66
2023/03/26 04:59:37;;;;;;;5.13;1.40;;;24.60;69.20;;;;;;5071835;28;20669;-69
2023/03/26 05:02:07;;;;;;;8.53;1.77;;;24.70;69.10;;;;;;5071297;28;20187;-67
2023/03/26 05:04:35;;;;;;;6.77;1.53;;;24.70;69.00;;;;;;5076771;28;20191;-69
2023/03/26 05:07:03;;;;;;;4.80;1.40;;;24.60;68.90;;;;;;5074386;28;20339;-67
2023/03/26 05:09:30;;;;;;;10.37;1.37;;;24.50;69.20;;;;;;5074499;28;20190;-68
2023/03/26 05:11:58;;;;;;;6.93;1.50;;;24.30;69.50;;;;;;5071226;28;20180;-70
2023/03/26 05:14:25;;;;;;;7.17;1.37;;;24.30;69.80;;;;;;5076810;28;20190;-68
2023/03/26 05:16:52;;;;;;;7.60;1.53;;;24.30;69.10;;;;;;5074068;28;20241;-69
2023/03/26 05:19:21;;;;;;;5.17;1.33;;;24.30;69.20;;;;;;5066670;28;20206;-68
2023/03/26 05:21:48;;;;;;;5.27;1.43;;;24.30;69.30;;;;;;5074229;28;20189;-70
2023/03/26 05:24:15;;;;;;;8.33;1.30;;;24.30;69.30;;;;;;5073929;28;20722;-72
2023/03/26 05:26:43;;;;;;;7.43;1.77;;;24.40;69.10;;;;;;5073592;28;20229;-69
2023/03/26 05:29:17;;;;;;;4.70;1.30;;;24.40;69.20;;;;;;5079819;28;20187;-69
2023/03/26 05:31:44;;;;;;;8.40;1.50;;;24.40;69.10;;;;;;5088772;28;20577;-68
2023/03/26 05:34:12;;;;;;;4.43;1.67;;;24.40;69.20;;;;;;5084808;28;20233;-70
2023/03/26 05:36:41;;;;;;;9.13;2.40;;;24.40;69.70;;;;;;5074703;28;20167;-69
2023/03/26 05:39:08;;;;;;;8.60;1.60;;;24.50;69.90;;;;;;5078433;28;20279;-70
2023/03/26 05:41:36;;;;;;;8.53;1.80;;;24.40;70.00;;;;;;5075009;28;20626;-70
2023/03/26 05:44:03;;;;;;;4.87;1.30;;;24.30;70.40;;;;;;5075191;28;20225;-72
2023/03/26 05:46:30;;;;;;;6.93;1.40;;;24.30;70.70;;;;;;5075744;28;20270;-67
2023/03/26 05:48:58;;;;;;;10.33;1.67;;;24.40;71.10;;;;;;5080600;28;20236;-72
2023/03/26 05:51:25;;;;;;;7.27;1.50;;;24.40;70.90;;;;;;5080077;28;20217;-68
2023/03/26 05:53:52;;;;;;;6.47;2.00;;;24.30;71.40;;;;;;5082800;28;20184;-69
2023/03/26 05:56:20;;;;;;;7.33;1.30;;;24.40;71.80;;;;;;5075872;28;20337;-71
2023/03/26 05:58:47;;;;;;;7.70;1.70;;;24.40;71.90;;;;;;5080353;28;20186;-68
2023/03/26 06:01:18;;;;;;;7.57;1.23;;;24.50;70.90;;;;;;5072974;28;20175;-68
2023/03/26 06:03:46;;;;;;;3.73;1.30;;;24.90;69.00;;;;;;5074592;28;20187;-67
2023/03/26 06:06:15;;;;;;;6.53;1.60;;;25.40;66.60;;;;;;5075442;28;20697;-69
2023/03/26 06:08:50;;;;;;;5.33;1.30;;;25.40;65.30;;;;;;5067508;28;20254;-66
2023/03/26 06:11:20;;;;;;;7.97;1.40;;;25.30;65.30;;;;;;5068275;28;20224;-68
2023/03/26 06:13:48;;;;;;;6.27;1.53;;;25.30;64.90;;;;;;5074431;28;20206;-68
2023/03/26 06:16:16;;;;;;;4.23;1.23;;;25.30;64.30;;;;;;5072474;28;20247;-68
2023/03/26 06:18:43;;;;;;;4.70;1.30;;;25.20;65.80;;;;;;5072571;28;20246;-68
2023/03/26 06:21:11;;;;;;;8.40;1.30;;;25.00;67.60;;;;;;5075069;28;20193;-66
2023/03/26 06:23:38;;;;;;;4.17;1.37;;;24.60;69.40;;;;;;5076228;28;20539;-66
2023/03/26 06:26:05;;;;;;;7.53;1.40;;;24.50;70.20;;;;;;5074779;28;20197;-72
2023/03/26 06:28:35;;;;;;;6.50;1.40;;;24.50;71.10;;;;;;5070210;28;20248;-69
2023/03/26 06:31:03;;;;;;;7.93;1.63;;;24.70;71.10;;;;;;5075651;28;20231;-71
2023/03/26 06:33:30;;;;;;;9.20;1.70;;;24.60;71.40;;;;;;5076103;28;20180;-71
2023/03/26 06:35:58;;;;;;;6.77;1.50;;;24.60;71.80;;;;;;5075164;28;20641;-74
2023/03/26 06:38:25;;;;;;;6.67;1.67;;;24.40;72.60;;;;;;5075451;28;20198;-74
2023/03/26 06:40:52;;;;;;;7.87;2.07;;;24.20;73.50;;;;;;5077669;28;20182;-73
2023/03/26 06:43:20;;;;;;;7.63;1.53;;;24.20;73.70;;;;;;5074199;28;20210;-71
2023/03/26 06:45:51;;;;;;;4.93;1.53;;;24.10;73.90;;;;;;5074992;28;20175;-72
2023/03/26 06:48:18;;;;;;;8.07;2.03;;;24.00;74.40;;;;;;5070300;28;20268;-74
2023/03/26 06:50:47;;;;;;;7.40;1.70;;;23.90;74.70;;;;;;5076576;28;20656;-71
2023/03/26 06:53:14;;;;;;;6.67;1.17;;;23.70;74.40;;;;;;5072335;28;20528;-76
2023/03/26 06:55:41;;;;;;;7.10;1.63;;;23.60;75.00;;;;;;5075932;28;20183;-73
2023/03/26 06:58:12;;;;;;;8.57;1.50;;;23.50;74.90;;;;;;5074903;28;20662;-73
2023/03/26 07:00:41;;;;;;;14.00;2.03;;;23.40;74.90;;;;;;5074268;28;20187;-73
2023/03/26 07:03:10;;;;;;;7.63;1.60;;;23.50;74.90;;;;;;5072944;28;20198;-73
2023/03/26 07:05:38;;;;;;;7.77;2.07;;;23.70;75.30;;;;;;5069433;28;20275;-73
2023/03/26 07:08:05;;;;;;;8.17;2.40;;;23.80;75.00;;;;;;5073229;28;20345;-72
2023/03/26 07:10:33;;;;;;;13.63;2.20;;;24.40;73.90;;;;;;5071726;28;20262;-71
2023/03/26 07:13:00;;;;;;;19.80;11.63;;;24.50;73.00;;;;;;5075999;28;20253;-72
2023/03/26 07:15:28;;;;;;;11.73;5.13;;;24.80;72.10;;;;;;5075221;28;20187;-74
2023/03/26 07:17:55;;;;;;;8.87;2.50;;;24.80;72.20;;;;;;5065964;28;20657;-72
2023/03/26 07:20:23;;;;;;;7.00;1.87;;;24.70;72.50;;;;;;5067215;28;20271;-74
2023/03/26 07:22:51;;;;;;;9.97;1.83;;;24.60;73.10;;;;;;5073036;28;20179;-70
2023/03/26 07:25:19;;;;;;;9.17;1.90;;;24.20;74.60;;;;;;5073813;28;20274;-74
2023/03/26 07:28:25;;;;;;;11.53;2.13;;;24.00;75.50;;;;;;5070386;28;20226;-72
2023/03/26 07:31:02;;;;;;;11.90;2.30;;;23.70;76.50;;;;;;5063391;28;20211;-72
2023/03/26 07:33:34;;;;;;;8.40;1.60;;;23.60;77.00;;;;;;5073483;28;20505;-71
2023/03/26 07:36:02;;;;;;;8.97;1.97;;;23.50;77.30;;;;;;5073303;28;20167;-74
2023/03/26 07:38:52;;;;;;;9.20;2.07;;;23.50;77.60;;;;;;5072481;28;20194;-73
2023/03/26 07:41:48;;;;;;;9.00;1.57;;;23.40;77.80;;;;;;5072115;28;20278;-71
2023/03/26 07:44:40;;;;;;;10.97;1.70;;;23.30;78.10;;;;;;5062486;28;20255;-71
2023/03/26 07:47:34;;;;;;;8.17;1.60;;;23.30;78.40;;;;;;5071240;28;20206;-73
2023/03/26 07:50:01;;;;;;;9.27;1.90;;;23.20;78.50;;;;;;5063697;28;20190;-71
2023/03/26 07:52:29;;;;;;;9.97;1.80;;;23.10;78.90;;;;;;5072190;28;20190;-70
2023/03/26 07:54:57;;;;;;;10.13;1.90;;;23.00;79.10;;;;;;5081187;28;20180;-71
2023/03/26 07:57:45;;;;;;;13.97;2.20;;;23.00;79.20;;;;;;5073229;28;20186;-70
2023/03/26 08:00:41;;;;;;;12.17;1.90;;;22.90;79.10;;;;;;5074806;28;20304;-75
2023/03/26 08:03:48;;;;;;;14.07;2.00;;;22.80;79.10;;;;;;5076023;28;20191;-73
2023/03/26 08:06:23;;;;;;;9.87;1.93;;;22.80;79.40;;;;;;5072105;28;20274;-72
2023/03/26 08:09:12;;;;;;;13.40;1.90;;;22.80;79.70;;;;;;5064107;28;20268;-70
2023/03/26 08:11:49;;;;;;;7.90;1.87;;;22.80;80.00;;;;;;5068072;28;20183;-69
2023/03/26 08:14:25;;;;;;;10.30;2.27;;;22.80;80.20;;;;;;5068325;28;20267;-69
2023/03/26 08:17:02;;;;;;;11.30;2.63;;;22.70;80.30;;;;;;5064287;28;20198;-69
2023/03/26 08:19:53;;;;;;;11.93;2.63;;;22.80;80.50;;;;;;5080846;28;20256;-68
2023/03/26 08:22:39;;;;;;;8.27;1.90;;;22.80;80.70;;;;;;5081596;28;20175;-71
2023/03/26 08:25:26;;;;;;;13.97;2.00;;;22.70;81.00;;;;;;5068119;28;20377;-69
2023/03/26 08:28:15;;;;;;;7.47;2.00;;;22.70;81.10;;;;;;5077555;28;20277;-68
2023/03/26 08:30:43;;;;;;;11.83;2.10;;;22.60;81.30;;;;;;5073079;28;20179;-71
2023/03/26 08:33:19;;;;;;;12.37;2.10;;;22.60;81.50;;;;;;5071261;28;20183;-69
2023/03/26 08:35:48;;;;;;;9.10;1.90;;;22.60;81.60;;;;;;5070152;28;20175;-70
2023/03/26 08:38:17;;;;;;;13.30;2.60;;;22.60;81.60;;;;;;5068743;28;20206;-67
2023/03/26 08:40:45;;;;;;;9.83;2.07;;;22.60;81.70;;;;;;5074281;28;20712;-67
2023/03/26 08:43:42;;;;;;;11.10;2.30;;;22.60;81.60;;;;;;5076576;28;20178;-67
2023/03/26 08:46:45;;;;;;;8.67;2.30;;;22.60;81.60;;;;;;5060906;28;20171;-67
2023/03/26 08:49:44;;;;;;;11.43;2.00;;;22.70;81.70;;;;;;5071641;28;20191;-67
2023/03/26 08:52:11;;;;;;;13.57;2.80;;;22.60;81.70;;;;;;5071879;28;20191;-68
2023/03/26 08:54:47;;;;;;;8.87;2.30;;;22.60;81.50;;;;;;5078617;28;20575;-68
2023/03/26 08:57:47;;;;;;;12.10;2.57;;;22.60;81.60;;;;;;5072655;28;20581;-67
2023/03/26 09:00:46;;;;;;;14.10;2.50;;;22.70;81.40;;;;;;5072863;28;20562;-70
2023/03/26 09:03:32;;;;;;;17.97;2.53;;;22.70;81.50;;;;;;5073895;28;20181;-67
2023/03/26 09:06:17;;;;;;;16.83;2.67;;;22.70;81.20;;;;;;5072371;28;20202;-69
2023/03/26 09:09:13;;;;;;;10.67;2.37;;;22.70;81.30;;;;;;5070801;28;20230;-70
2023/03/26 09:12:05;;;;;;;13.53;2.47;;;22.70;81.60;;;;;;5070142;28;20195;-69
2023/03/26 09:15:15;;;;;;;16.67;2.70;;;22.70;82.00;;;;;;5078191;28;20211;-67
2023/03/26 09:18:18;;;;;;;9.17;2.07;;;22.60;82.60;;;;;;5074699;28;20186;-66
2023/03/26 09:21:07;;;;;;;11.93;2.20;;;22.50;83.40;;;;;;5064090;28;20274;-68
2023/03/26 09:24:10;;;;;;;9.23;2.13;;;22.30;83.80;;;;;;5073594;28;20213;-67
2023/03/26 09:26:58;;;;;;;12.03;2.27;;;22.30;84.40;;;;;;5069588;28;20593;-71
2023/03/26 09:29:31;;;;;;;9.60;2.10;;;22.30;84.50;;;;;;5081710;28;20191;-67
2023/03/26 09:32:27;;;;;;;12.17;2.63;;;22.20;84.50;;;;;;5080601;28;20648;-67
2023/03/26 09:35:14;;;;;;;12.23;2.87;;;22.20;84.80;;;;;;5069222;28;20175;-70
2023/03/26 09:37:41;;;;;;;13.77;2.37;;;22.20;84.80;;;;;;5075785;28;20179;-68
2023/03/26 09:40:21;;;;;;;10.97;2.33;;;22.20;84.70;;;;;;5070924;28;20240;-71
2023/03/26 09:43:03;;;;;;;11.60;2.20;;;22.10;84.60;;;;;;5069722;28;20758;-67
2023/03/26 09:45:51;;;;;;;12.73;2.23;;;22.00;84.60;;;;;;5073301;28;20194;-68
2023/03/26 09:48:43;;;;;;;10.40;2.23;;;22.00;84.80;;;;;;5075210;28;20206;-67
2023/03/26 09:51:10;;;;;;;12.13;2.27;;;22.00;84.80;;;;;;5085606;28;20178;-67
2023/03/26 09:53:49;;;;;;;11.10;2.23;;;22.00;84.80;;;;;;5072088;28;20240;-69
2023/03/26 09:56:48;;;;;;;10.97;2.00;;;22.00;84.60;;;;;;5061975;28;20633;-70
2023/03/26 09:59:39;;;;;;;12.00;2.10;;;22.00;84.70;;;;;;5072561;28;20588;-67
2023/03/26 10:02:10;;;;;;;8.70;2.23;;;22.10;84.70;;;;;;5078632;28;20244;-68
2023/03/26 10:04:58;;;;;;;15.73;2.07;;;22.10;84.70;;;;;;5069834;28;20226;-67
2023/03/26 10:07:57;;;;;;;14.73;2.87;;;22.10;84.60;;;;;;5073649;28;20284;-72
2023/03/26 10:10:30;;;;;;;14.57;2.50;;;22.10;84.70;;;;;;5075480;28;20172;-67
2023/03/26 10:13:25;;;;;;;7.77;2.00;;;22.10;84.70;;;;;;5074917;28;20240;-70
2023/03/26 10:16:19;;;;;;;11.23;1.83;;;22.10;84.70;;;;;;5087334;28;20190;-67
2023/03/26 10:19:08;;;;;;;7.80;1.90;;;22.10;84.20;;;;;;5074739;28;20187;-70
2023/03/26 10:21:58;;;;;;;11.53;2.10;;;22.10;83.80;;;;;;5073217;28;20187;-69
2023/03/26 10:24:25;;;;;;;6.70;1.60;;;22.00;83.40;;;;;;5068365;28;20210;-69
2023/03/26 10:27:08;;;;;;;8.80;1.50;;;22.00;83.20;;;;;;5066687;28;20187;-67
2023/03/26 10:30:03;;;;;;;6.40;1.77;;;22.00;83.10;;;;;;5071526;28;20572;-72
2023/03/26 10:32:42;;;;;;;6.97;2.10;;;22.00;83.10;;;;;;5071111;28;20179;-68
2023/03/26 10:35:38;;;;;;;12.10;1.97;;;22.00;83.20;;;;;;5076193;28;20189;-68
2023/03/26 10:38:26;;;;;;;10.97;2.37;;;22.00;83.40;;;;;;5069890;28;20655;-67
2023/03/26 10:41:13;;;;;;;12.33;2.00;;;22.00;83.80;;;;;;5074273;28;20179;-70
2023/03/26 10:43:58;;;;;;;10.20;1.73;;;22.00;84.00;;;;;;5076146;28;20317;-66
2023/03/26 10:46:31;;;;;;;11.80;2.47;;;21.90;84.30;;;;;;5073678;28;20256;-67
2023/03/26 10:49:34;;;;;;;7.00;1.63;;;21.80;84.60;;;;;;5085854;28;20225;-66
2023/03/26 10:52:15;;;;;;;8.70;2.30;;;21.80;84.80;;;;;;5059298;28;20198;-69
2023/03/26 10:55:13;;;;;;;9.23;1.90;;;21.70;84.80;;;;;;5067716;28;20210;-68
2023/03/26 10:57:55;;;;;;;14.40;2.20;;;21.70;85.20;;;;;;5078408;28;20182;-69
2023/03/26 11:00:25;;;;;;;9.33;2.27;;;21.70;85.80;;;;;;5071391;28;20187;-69
2023/03/26 11:02:58;;;;;;;10.67;2.60;;;21.60;86.00;;;;;;5076577;28;20181;-68
2023/03/26 11:05:40;;;;;;;15.13;2.80;;;21.60;86.10;;;;;;5071624;28;20666;-68
2023/03/26 11:08:20;;;;;;;11.07;2.37;;;21.60;86.10;;;;;;5076006;28;20223;-69
2023/03/26 11:11:06;;;;;;;8.57;2.43;;;21.60;86.20;;;;;;5080708;28;20697;-67
2023/03/26 11:13:54;;;;;;;13.90;2.60;;;21.60;86.10;;;;;;5067985;28;20183;-67
2023/03/26 11:16:46;;;;;;;11.47;2.20;;;21.60;86.20;;;;;;5073990;28;20285;-67
2023/03/26 11:19:35;;;;;;;11.17;2.27;;;21.60;86.10;;;;;;5085086;28;20179;-67
2023/03/26 11:22:30;;;;;;;12.40;2.50;;;21.60;86.10;;;;;;5066745;28;20205;-68
2023/03/26 11:25:00;;;;;;;13.53;2.57;;;21.60;86.10;;;;;;5071637;28;20232;-67
2023/03/26 11:27:48;;;;;;;16.10;2.67;;;21.60;86.10;;;;;;5076231;28;20575;-68
2023/03/26 11:30:57;;;;;;;9.33;2.37;;;21.60;85.70;;;;;;5091176;28;20247;-69
2023/03/26 11:33:38;;;;;;;12.97;2.33;;;21.70;85.80;;;;;;5076102;28;20195;-67
2023/03/26 11:36:19;;;;;;;10.93;2.43;;;21.70;85.80;;;;;;5059905;28;20176;-69
2023/03/26 11:38:49;;;;;;;10.37;2.13;;;21.70;85.80;;;;;;5081780;28;20273;-69
2023/03/26 11:41:23;;;;;;;14.53;2.67;;;21.70;85.70;;;;;;5074979;28;20201;-68
2023/03/26 11:44:12;;;;;;;16.13;2.77;;;21.70;85.50;;;;;;5067801;28;20191;-67
2023/03/26 11:46:44;;;;;;;10.03;1.90;;;21.70;85.20;;;;;;5065850;28;20191;-70
2023/03/26 11:49:16;;;;;;;14.17;2.43;;;21.80;85.10;;;;;;5053303;28;20219;-73
2023/03/26 11:51:47;;;;;;;11.67;2.70;;;21.80;84.90;;;;;;5060365;28;20207;-71
2023/03/26 11:54:16;;;;;;;15.43;2.83;;;21.80;84.40;;;;;;5071999;28;20591;-73
2023/03/26 11:56:56;;;;;;;11.00;2.33;;;21.80;84.10;;;;;;5072766;28;20183;-75
2023/03/26 11:59:58;;;;;;;12.90;2.53;;;21.90;83.60;;;;;;5072146;28;20205;-74
2023/03/26 12:02:34;;;;;;;13.43;2.37;;;21.90;83.50;;;;;;5058354;28;20278;-74
2023/03/26 12:05:19;;;;;;;10.37;2.23;;;22.00;83.20;;;;;;5082343;28;20213;-73
2023/03/26 12:07:54;;;;;;;11.20;2.23;;;22.00;83.20;;;;;;5066128;28;20227;-74
2023/03/26 12:10:36;;;;;;;19.27;2.70;;;22.00;83.20;;;;;;5072049;28;20645;-71
2023/03/26 12:13:32;;;;;;;15.00;2.43;;;22.00;83.10;;;;;;5074511;28;20179;-72
2023/03/26 12:16:08;;;;;;;14.93;2.73;;;22.00;83.10;;;;;;5072957;28;20194;-75
2023/03/26 12:18:37;;;;;;;10.57;2.60;;;22.00;82.80;;;;;;5071961;28;20187;-71
2023/03/26 12:21:17;;;;;;;13.33;2.90;;;22.00;82.70;;;;;;5055135;28;20219;-72
2023/03/26 12:24:00;;;;;;;14.87;2.53;;;22.00;82.70;;;;;;5070911;28;20270;-74
2023/03/26 12:26:45;;;;;;;12.00;2.20;;;22.00;82.70;;;;;;5081504;28;20264;-74
2023/03/26 12:29:15;;;;;;;9.43;1.87;;;22.00;82.80;;;;;;5086795;28;20277;-76
2023/03/26 12:31:50;;;;;;;8.33;2.03;;;21.90;82.60;;;;;;5091031;28;20179;-72
2023/03/26 12:34:21;;;;;;;13.77;2.60;;;22.00;82.50;;;;;;5072780;28;20257;-71
2023/03/26 12:36:58;;;;;;;8.90;2.13;;;22.00;82.60;;;;;;5073207;28;20208;-70
2023/03/26 12:39:38;;;;;;;13.07;2.40;;;22.00;82.50;;;;;;5072619;28;20205;-70
2023/03/26 12:42:29;;;;;;;9.63;2.03;;;22.00;82.60;;;;;;5072455;28;20183;-71
2023/03/26 12:44:59;;;;;;;16.13;2.00;;;22.00;82.50;;;;;;5072433;28;20548;-73
2023/03/26 12:47:31;;;;;;;18.03;2.10;;;22.00;82.50;;;;;;5075962;28;20222;-73
2023/03/26 12:49:59;;;;;;;10.83;2.20;;;22.00;82.50;;;;;;5064794;28;20206;-74
2023/03/26 12:52:32;;;;;;;13.87;1.97;;;22.00;82.40;;;;;;5062589;28;20179;-73
2023/03/26 12:55:37;;;;;;;10.67;2.30;;;22.00;82.50;;;;;;5084221;28;20208;-73
2023/03/26 12:58:27;;;;;;;21.50;2.53;;;22.00;82.50;;;;;;5058524;28;20541;-72
2023/03/26 13:01:22;;;;;;;23.80;2.37;;;21.90;82.90;;;;;;5071127;28;20670;-74
2023/03/26 13:04:07;;;;;;;16.63;2.40;;;21.90;83.10;;;;;;5071079;28;20191;-74
2023/03/26 13:06:49;;;;;;;16.07;3.20;;;21.80;83.20;;;;;;5071381;28;20187;-72
2023/03/26 13:09:29;;;;;;;21.07;2.80;;;21.80;83.30;;;;;;5072855;28;20234;-74
2023/03/26 13:12:33;;;;;;;7.93;2.03;;;21.80;83.40;;;;;;5074819;28;20266;-74
2023/03/26 13:15:23;;;;;;;12.00;2.17;;;21.80;83.50;;;;;;5070419;28;20187;-71
2023/03/26 13:18:10;;;;;;;16.03;2.43;;;21.80;83.50;;;;;;5072852;28;20191;-71
2023/03/26 13:20:51;;;;;;;16.10;2.80;;;21.80;83.60;;;;;;5074690;28;20190;-73
2023/03/26 13:23:25;;;;;;;13.30;2.23;;;21.80;83.90;;;;;;5075006;28;20175;-71
2023/03/26 13:26:16;;;;;;;13.67;2.57;;;21.80;83.40;;;;;;5075436;28;20178;-73
2023/03/26 13:29:10;;;;;;;10.63;1.90;;;21.80;83.40;;;;;;5074432;28;20211;-67